Time;durP1;ratioP1;P1;durP2;ratioP2;P2;SDS_P1;SDS_P2;PMS_P1;PMS_P2;Temp;Humidity;BMP_temperature;BMP_pressure;BME280_temperature;BME280_humidity;BME280_pressure;Samples;Min_cycle;Max_cycle;Signal;HPM_P1;HPM_P2
2022/01/15 00:00:34;;;;;;;47.27;24.47;;;;;;;-3.38;100.00;98440.97;5054599;28;20554;-60
2022/01/15 00:03:03;;;;;;;44.80;25.30;;;;;;;-3.34;100.00;98447.69;5051905;28;20449;-57
2022/01/15 00:05:32;;;;;;;39.13;24.00;;;;;;;-3.38;100.00;98430.59;5056005;28;20481;-63
2022/01/15 00:08:01;;;;;;;35.67;25.10;;;;;;;-3.41;100.00;98434.19;5049441;28;20542;-55
2022/01/15 00:10:30;;;;;;;40.23;23.53;;;;;;;-3.50;100.00;98431.97;5056058;28;20453;-60
2022/01/15 00:12:59;;;;;;;38.40;23.37;;;;;;;-3.46;100.00;98427.50;5052168;28;20504;-58
2022/01/15 00:15:32;;;;;;;41.20;25.87;;;;;;;-3.47;100.00;98413.69;5049857;28;20825;-59
2022/01/15 00:18:04;;;;;;;44.90;25.03;;;;;;;-3.43;100.00;98432.56;5053406;28;20467;-58
2022/01/15 00:20:33;;;;;;;42.70;25.20;;;;;;;-3.31;100.00;98421.66;5048204;28;20826;-54
2022/01/15 00:23:01;;;;;;;40.27;24.07;;;;;;;-3.29;100.00;98422.41;5048865;28;21166;-61
2022/01/15 00:25:30;;;;;;;44.77;24.77;;;;;;;-3.25;100.00;98420.56;5054832;28;20479;-60
2022/01/15 00:27:59;;;;;;;42.80;23.83;;;;;;;-3.30;100.00;98412.97;5050456;28;20499;-59
2022/01/15 00:30:29;;;;;;;36.97;23.53;;;;;;;-3.21;100.00;98420.38;5051006;28;20566;-60
2022/01/15 00:32:57;;;;;;;33.77;22.27;;;;;;;-3.26;100.00;98414.50;5050161;28;20510;-56
2022/01/15 00:35:26;;;;;;;40.83;24.50;;;;;;;-3.12;100.00;98416.50;5050555;28;20688;-58
2022/01/15 00:37:55;;;;;;;37.80;23.33;;;;;;;-3.04;100.00;98411.00;5050317;28;20484;-57
2022/01/15 00:40:23;;;;;;;38.10;23.20;;;;;;;-2.99;100.00;98411.63;5054409;28;20492;-59
2022/01/15 00:42:51;;;;;;;39.23;23.70;;;;;;;-2.95;100.00;98410.56;5051309;28;20455;-58
2022/01/15 00:45:22;;;;;;;37.20;22.03;;;;;;;-2.90;100.00;98410.38;5043865;28;20897;-58
2022/01/15 00:47:52;;;;;;;39.07;22.17;;;;;;;-2.94;100.00;98414.84;5050278;28;20965;-59
2022/01/15 00:50:21;;;;;;;35.67;21.10;;;;;;;-2.94;100.00;98409.66;5050416;28;20268;-58
2022/01/15 00:52:49;;;;;;;35.23;22.10;;;;;;;-2.82;100.00;98407.44;5055522;28;20468;-57
2022/01/15 00:55:19;;;;;;;35.00;22.80;;;;;;;-3.02;100.00;98408.34;5052179;28;20477;-58
2022/01/15 00:57:48;;;;;;;33.93;21.00;;;;;;;-3.00;100.00;98398.75;5050884;28;20510;-59
2022/01/15 01:00:19;;;;;;;31.10;20.10;;;;;;;-2.87;100.00;98402.44;5056962;28;20590;-59
2022/01/15 01:02:48;;;;;;;34.37;20.97;;;;;;;-2.80;100.00;98396.06;5054452;28;20512;-59
2022/01/15 01:05:20;;;;;;;33.17;21.23;;;;;;;-2.82;100.00;98397.06;5044746;28;20531;-59
2022/01/15 01:07:48;;;;;;;30.87;19.47;;;;;;;-2.83;100.00;98395.38;5053036;28;20468;-59
2022/01/15 01:10:49;;;;;;;31.43;20.40;;;;;;;-2.74;100.00;98389.78;5049309;28;20457;-59
2022/01/15 01:24:24;;;;;;;29.00;19.50;;;;;;;-2.71;100.00;98383.59;5050188;28;20510;-58
2022/01/15 01:26:56;;;;;;;28.20;18.17;;;;;;;-2.66;100.00;98386.81;5049854;28;21476;-59
2022/01/15 01:29:34;;;;;;;29.73;20.03;;;;;;;-2.56;100.00;98369.06;5050219;28;21527;-59
2022/01/15 01:32:07;;;;;;;28.87;17.73;;;;;;;-2.59;100.00;98383.03;5054381;28;20743;-54
2022/01/15 01:34:39;;;;;;;29.43;18.27;;;;;;;-2.82;100.00;98381.50;5052192;28;20866;-59
2022/01/15 01:37:14;;;;;;;32.03;20.20;;;;;;;-2.81;100.00;98372.81;5052949;28;21195;-54
2022/01/15 01:39:46;;;;;;;27.00;17.80;;;;;;;-2.66;100.00;98369.50;5054343;28;20801;-60
2022/01/15 01:42:35;;;;;;;31.73;19.53;;;;;;;-2.60;100.00;98372.72;5050965;28;20276;-58
2022/01/15 01:45:07;;;;;;;28.27;18.80;;;;;;;-2.65;100.00;98365.16;5054375;28;20910;-58
2022/01/15 01:47:41;;;;;;;31.40;19.83;;;;;;;-2.66;100.00;98361.72;5051325;28;21147;-58
2022/01/15 01:50:12;;;;;;;29.27;19.03;;;;;;;-2.75;100.00;98351.78;5055233;28;20449;-59
2022/01/15 01:52:43;;;;;;;25.67;17.97;;;;;;;-2.60;100.00;98360.59;5060188;28;20528;-59
2022/01/15 01:55:11;;;;;;;28.23;19.20;;;;;;;-2.37;100.00;98356.03;5054650;28;20481;-60
2022/01/15 01:57:40;;;;;;;27.90;19.13;;;;;;;-2.69;100.00;98346.28;5055865;28;21232;-58
2022/01/15 02:00:11;;;;;;;31.97;19.90;;;;;;;-2.72;100.00;98356.81;5053343;28;20519;-58
2022/01/15 02:02:39;;;;;;;30.40;19.77;;;;;;;-2.54;100.00;98351.66;5051658;28;21007;-60
2022/01/15 02:05:09;;;;;;;32.80;19.17;;;;;;;-2.50;100.00;98353.19;5052213;28;20502;-55
2022/01/15 02:07:38;;;;;;;29.30;18.17;;;;;;;-2.53;100.00;98353.34;5057804;28;20643;-52
2022/01/15 02:10:09;;;;;;;30.50;19.73;;;;;;;-2.40;100.00;98348.41;5052205;28;20470;-60
2022/01/15 02:12:37;;;;;;;37.20;22.23;;;;;;;-2.58;100.00;98347.53;5054479;28;20450;-57
2022/01/15 02:15:08;;;;;;;39.17;22.53;;;;;;;-2.45;100.00;98343.47;5053876;28;20657;-61
2022/01/15 02:17:36;;;;;;;32.37;20.13;;;;;;;-2.68;100.00;98335.00;5058562;28;20461;-57
2022/01/15 02:20:24;;;;;;;29.03;18.83;;;;;;;-2.52;100.00;98340.31;5049777;28;20880;-57
2022/01/15 02:25:42;;;;;;;33.60;19.93;;;;;;;-2.61;100.00;98325.19;5038144;28;21094;-59
2022/01/15 02:28:11;;;;;;;29.77;20.80;;;;;;;-2.68;100.00;98324.63;5056332;28;20207;-54
2022/01/15 02:30:39;;;;;;;33.70;19.67;;;;;;;-2.60;100.00;98326.84;5053699;28;20667;-58
2022/01/15 02:33:08;;;;;;;28.43;18.67;;;;;;;-2.53;100.00;98319.59;5049757;28;20462;-57
2022/01/15 02:35:38;;;;;;;28.63;18.90;;;;;;;-2.39;100.00;98321.53;5053418;28;20480;-57
2022/01/15 02:38:08;;;;;;;28.53;18.60;;;;;;;-2.41;100.00;98332.00;5054299;28;20453;-53
2022/01/15 02:40:36;;;;;;;28.50;18.27;;;;;;;-2.55;100.00;98327.47;5053812;28;21047;-60
2022/01/15 02:43:05;;;;;;;30.50;19.67;;;;;;;-2.59;100.00;98328.53;5028754;28;21183;-58
2022/01/15 02:45:34;;;;;;;26.70;19.67;;;;;;;-2.57;100.00;98320.66;5052679;28;20591;-58
2022/01/15 02:48:03;;;;;;;29.70;19.47;;;;;;;-2.67;100.00;98320.25;5054516;28;20581;-58
2022/01/15 02:50:31;;;;;;;28.03;18.37;;;;;;;-2.54;100.00;98320.50;5051904;28;20230;-58
2022/01/15 02:53:04;;;;;;;31.13;19.73;;;;;;;-2.69;100.00;98312.56;5056117;28;20198;-58
2022/01/15 02:55:32;;;;;;;30.30;18.93;;;;;;;-2.56;100.00;98318.00;5057430;28;20313;-60
2022/01/15 02:58:00;;;;;;;28.97;19.37;;;;;;;-2.57;100.00;98313.72;5054481;28;20309;-59
2022/01/15 03:00:29;;;;;;;27.90;18.37;;;;;;;-2.53;100.00;98312.66;5051758;28;20547;-58
2022/01/15 03:02:57;;;;;;;33.23;18.03;;;;;;;-2.52;100.00;98316.94;5056634;28;20476;-55
2022/01/15 03:05:25;;;;;;;33.63;18.93;;;;;;;-2.50;100.00;98309.94;5057768;28;20476;-59
2022/01/15 03:07:53;;;;;;;27.73;19.33;;;;;;;-2.66;100.00;98304.63;5054739;28;20743;-53
2022/01/15 03:10:23;;;;;;;29.73;17.77;;;;;;;-2.44;100.00;98310.53;5050664;28;20532;-57
2022/01/15 03:12:53;;;;;;;30.97;19.50;;;;;;;-2.49;100.00;98311.59;5056135;28;20547;-57
2022/01/15 03:15:22;;;;;;;25.40;18.17;;;;;;;-2.56;100.00;98304.19;5053482;28;20514;-55
2022/01/15 03:17:50;;;;;;;30.70;20.10;;;;;;;-2.58;100.00;98314.66;5056122;28;20506;-58
2022/01/15 03:20:20;;;;;;;25.27;16.93;;;;;;;-2.45;100.00;98314.06;5052531;28;20488;-57
2022/01/15 03:22:48;;;;;;;29.30;18.97;;;;;;;-2.60;100.00;98318.22;5050913;28;20905;-59
2022/01/15 03:25:16;;;;;;;28.17;18.67;;;;;;;-2.60;100.00;98302.66;5055261;28;20534;-57
2022/01/15 03:27:46;;;;;;;28.67;17.83;;;;;;;-2.43;100.00;98305.28;5056643;28;20487;-60
2022/01/15 03:30:15;;;;;;;30.03;19.03;;;;;;;-2.53;100.00;98309.22;5054456;28;20204;-59
2022/01/15 03:32:43;;;;;;;36.83;25.88;;;;;;;-2.55;100.00;98311.91;5046723;28;20446;-57
2022/01/15 03:35:14;;;;;;;28.43;19.93;;;;;;;-2.36;100.00;98306.66;5048361;28;20254;-58
2022/01/15 03:37:42;;;;;;;31.40;18.63;;;;;;;-2.34;100.00;98307.44;5046118;28;20230;-57
2022/01/15 03:40:13;;;;;;;25.77;18.60;;;;;;;-2.31;100.00;98298.63;5051967;28;20519;-59
2022/01/15 03:42:41;;;;;;;29.00;18.73;;;;;;;-2.25;100.00;98300.09;5046586;28;20573;-59
2022/01/15 03:45:12;;;;;;;25.23;19.13;;;;;;;-2.40;100.00;98296.50;5047969;28;20914;-61
2022/01/15 03:47:41;;;;;;;30.07;19.07;;;;;;;-2.39;100.00;98296.44;5050019;28;20945;-59
2022/01/15 03:50:10;;;;;;;28.50;17.20;;;;;;;-2.31;100.00;98293.44;5052355;28;20481;-60
2022/01/15 03:52:38;;;;;;;31.60;18.47;;;;;;;-2.44;100.00;98284.59;5049809;28;20486;-57
2022/01/15 03:55:08;;;;;;;30.93;18.33;;;;;;;-2.53;100.00;98306.63;5053963;28;20898;-61
2022/01/15 03:57:36;;;;;;;32.07;17.80;;;;;;;-2.48;100.00;98302.91;5053001;28;20560;-59
2022/01/15 04:00:06;;;;;;;27.97;18.57;;;;;;;-2.43;100.00;98294.03;5049318;28;20294;-60
2022/01/15 04:02:36;;;;;;;28.13;18.13;;;;;;;-2.59;100.00;98288.75;5049958;28;20576;-60
2022/01/15 04:05:04;;;;;;;25.87;17.63;;;;;;;-2.54;100.00;98291.97;5048650;28;20990;-58
2022/01/15 04:07:33;;;;;;;30.13;18.13;;;;;;;-2.42;100.00;98286.19;5051644;28;20542;-57
2022/01/15 04:10:01;;;;;;;23.27;16.33;;;;;;;-2.45;100.00;98285.50;5046902;28;20549;-58
2022/01/15 04:12:29;;;;;;;26.77;18.37;;;;;;;-2.53;100.00;98278.06;5050456;28;20195;-58
2022/01/15 04:14:57;;;;;;;26.40;16.97;;;;;;;-2.37;100.00;98278.16;5047023;28;20589;-61
2022/01/15 04:17:26;;;;;;;35.70;19.77;;;;;;;-2.51;100.00;98271.06;5045860;28;20581;-60
2022/01/15 04:19:55;;;;;;;29.97;19.17;;;;;;;-2.51;100.00;98271.91;5046325;28;20207;-58
2022/01/15 04:22:24;;;;;;;30.50;19.30;;;;;;;-2.26;100.00;98275.03;5046804;28;20800;-58
2022/01/15 04:24:52;;;;;;;27.10;18.03;;;;;;;-2.19;100.00;98284.22;5052287;28;20476;-59
2022/01/15 04:27:23;;;;;;;28.73;19.20;;;;;;;-2.39;100.00;98283.44;5050060;28;20281;-56
2022/01/15 04:29:51;;;;;;;24.90;16.03;;;;;;;-2.24;100.00;98293.97;5051417;28;20569;-55
2022/01/15 04:32:20;;;;;;;24.80;18.03;;;;;;;-2.39;100.00;98296.44;5049701;28;20745;-58
2022/01/15 04:34:48;;;;;;;31.30;19.63;;;;;;;-2.25;100.00;98293.16;5053155;28;20514;-58
2022/01/15 04:37:21;;;;;;;30.03;18.70;;;;;;;-2.21;100.00;98288.63;5054402;28;20536;-59
2022/01/15 04:39:49;;;;;;;26.93;18.30;;;;;;;-2.16;100.00;98293.63;5053659;28;20567;-61
2022/01/15 04:42:20;;;;;;;37.55;25.13;;;;;;;-2.04;100.00;98293.00;5054641;28;20483;-56
2022/01/15 04:44:49;;;;;;;32.67;21.70;;;;;;;-2.08;100.00;98289.72;5055734;28;20506;-58
2022/01/15 04:47:17;;;;;;;31.87;20.33;;;;;;;-2.07;100.00;98287.94;5049884;28;20234;-60
2022/01/15 04:49:45;;;;;;;24.47;17.50;;;;;;;-2.14;100.00;98295.19;5049299;28;20253;-58
2022/01/15 04:52:13;;;;;;;24.87;16.83;;;;;;;-2.11;100.00;98289.84;5049911;28;20290;-60
2022/01/15 04:54:43;;;;;;;27.60;18.97;;;;;;;-2.18;100.00;98291.09;5054063;28;21261;-60
2022/01/15 04:57:11;;;;;;;25.23;16.63;;;;;;;-2.21;100.00;98281.69;5054529;28;20457;-60
2022/01/15 04:59:39;;;;;;;24.57;16.53;;;;;;;-2.04;100.00;98296.44;5050217;28;20306;-60
2022/01/15 05:02:07;;;;;;;25.80;18.30;;;;;;;-2.17;100.00;98284.97;5047481;28;20545;-60
2022/01/15 05:04:35;;;;;;;24.83;17.93;;;;;;;-2.07;100.00;98288.81;5053586;28;20571;-56
2022/01/15 05:07:10;;;;;;;29.17;17.77;;;;;;;-2.11;100.00;98276.88;5053025;28;20202;-62
2022/01/15 05:09:38;;;;;;;27.43;18.23;;;;;;;-2.15;100.00;98275.34;5051940;28;20295;-60
2022/01/15 05:12:12;;;;;;;29.53;17.63;;;;;;;-2.05;100.00;98270.53;5050116;28;20230;-59
2022/01/15 05:14:40;;;;;;;26.30;17.30;;;;;;;-1.82;100.00;98274.56;5056409;28;20552;-59
2022/01/15 05:17:09;;;;;;;24.60;16.83;;;;;;;-1.98;100.00;98284.88;5055293;28;20302;-56
2022/01/15 05:19:37;;;;;;;27.90;17.97;;;;;;;-2.19;100.00;98271.22;5050469;28;20237;-58
2022/01/15 05:22:05;;;;;;;28.17;18.30;;;;;;;-2.15;100.00;98269.31;5054999;28;20298;-57
2022/01/15 05:24:33;;;;;;;22.47;16.43;;;;;;;-2.00;100.00;98278.94;5050500;28;20531;-59
2022/01/15 05:27:02;;;;;;;25.80;16.60;;;;;;;-1.88;100.00;98277.47;5055832;28;20234;-62
2022/01/15 05:29:32;;;;;;;23.93;17.17;;;;;;;-1.73;100.00;98273.25;5056042;28;20473;-55
2022/01/15 05:32:00;;;;;;;26.20;16.93;;;;;;;-1.77;100.00;98271.72;5053824;28;20282;-60
2022/01/15 05:34:34;;;;;;;24.83;18.20;;;;;;;-1.86;100.00;98267.00;5056936;28;20485;-60
2022/01/15 05:37:03;;;;;;;35.63;24.80;;;;;;;-1.64;100.00;98274.53;5054357;28;20511;-59
2022/01/15 05:39:31;;;;;;;25.13;17.23;;;;;;;-1.77;100.00;98277.75;5057360;28;20461;-59
2022/01/15 05:41:59;;;;;;;25.97;17.40;;;;;;;-1.81;100.00;98280.59;5057430;28;20202;-59
2022/01/15 05:44:27;;;;;;;26.40;16.50;;;;;;;-1.84;100.00;98279.00;5053491;28;20231;-59
2022/01/15 05:46:57;;;;;;;20.33;14.97;;;;;;;-1.67;100.00;98282.50;5055283;28;20314;-60
2022/01/15 05:49:25;;;;;;;26.67;20.98;;;;;;;-1.63;100.00;98274.44;5051051;28;20527;-60
2022/01/15 05:51:53;;;;;;;23.63;17.43;;;;;;;-1.60;100.00;98278.66;5054394;28;20294;-58
2022/01/15 05:54:22;;;;;;;27.40;17.30;;;;;;;-1.68;100.00;98278.22;5053592;28;20255;-59
2022/01/15 05:57:01;;;;;;;20.47;16.77;;;;;;;-1.63;100.00;98284.00;5051648;28;20237;-56
2022/01/15 05:59:29;;;;;;;26.70;17.57;;;;;;;-1.81;100.00;98278.00;5053774;28;20285;-58
2022/01/15 06:01:59;;;;;;;27.20;17.60;;;;;;;-1.97;100.00;98278.78;5056248;28;20256;-52
2022/01/15 06:04:27;;;;;;;29.97;18.30;;;;;;;-1.86;100.00;98272.22;5061433;28;20488;-61
2022/01/15 06:06:55;;;;;;;33.25;23.83;;;;;;;-1.78;100.00;98275.25;5049384;28;20449;-54
2022/01/15 06:09:23;;;;;;;27.33;17.60;;;;;;;-1.84;100.00;98276.38;5060151;28;20242;-56
2022/01/15 06:11:55;;;;;;;26.83;15.50;;;;;;;-1.67;100.00;98282.50;5055840;28;20493;-54
2022/01/15 06:14:23;;;;;;;21.73;16.77;;;;;;;-1.56;100.00;98277.56;5047641;28;20504;-62
2022/01/15 06:16:51;;;;;;;25.13;16.00;;;;;;;-1.67;100.00;98278.13;5052281;28;20878;-61
2022/01/15 06:19:21;;;;;;;23.27;16.73;;;;;;;-1.64;100.00;98270.16;5060928;28;20214;-61
2022/01/15 06:21:49;;;;;;;24.83;16.43;;;;;;;-1.83;100.00;98272.88;5058961;28;20303;-62
2022/01/15 06:24:17;;;;;;;25.23;15.43;;;;;;;-1.80;100.00;98269.28;5056283;28;20323;-62
2022/01/15 06:26:46;;;;;;;23.60;16.27;;;;;;;-1.72;100.00;98268.88;5055448;28;20721;-62
2022/01/15 06:29:14;;;;;;;25.87;16.90;;;;;;;-1.72;100.00;98274.06;5054802;28;20207;-59
2022/01/15 06:31:42;;;;;;;23.33;17.43;;;;;;;-1.75;100.00;98273.31;5057126;28;20195;-57
2022/01/15 06:34:10;;;;;;;26.67;16.87;;;;;;;-1.99;100.00;98278.00;5053666;28;20576;-59
2022/01/15 06:36:39;;;;;;;23.17;16.70;;;;;;;-1.88;100.00;98277.47;5058231;28;20294;-61
2022/01/15 06:39:07;;;;;;;25.33;16.87;;;;;;;-1.73;100.00;98277.59;5052592;28;20290;-59
2022/01/15 06:41:36;;;;;;;30.23;16.27;;;;;;;-1.69;100.00;98271.34;5051979;28;20286;-60
2022/01/15 06:44:04;;;;;;;25.20;15.93;;;;;;;-1.71;100.00;98271.41;5052281;28;20620;-58
2022/01/15 06:46:32;;;;;;;21.07;16.27;;;;;;;-1.69;100.00;98272.16;5052615;28;20290;-61
2022/01/15 06:49:00;;;;;;;23.43;16.30;;;;;;;-1.77;100.00;98274.31;5051068;28;20203;-62
2022/01/15 06:51:28;;;;;;;27.20;17.47;;;;;;;-1.82;100.00;98271.94;5054083;28;20551;-59
2022/01/15 06:53:58;;;;;;;24.80;17.07;;;;;;;-1.75;100.00;98265.50;5053608;28;20299;-59
2022/01/15 06:56:26;;;;;;;21.13;15.07;;;;;;;-1.68;100.00;98265.22;5052420;28;20260;-61
2022/01/15 06:58:54;;;;;;;28.53;20.40;;;;;;;-1.66;100.00;98276.38;5055894;28;21055;-58
2022/01/15 07:01:23;;;;;;;26.90;19.93;;;;;;;-1.77;100.00;98263.94;5053639;28;20564;-57
2022/01/15 07:03:51;;;;;;;27.00;18.20;;;;;;;-1.79;100.00;98268.38;5051273;28;20612;-61
2022/01/15 07:06:20;;;;;;;27.83;18.00;;;;;;;-1.80;100.00;98272.72;5053706;28;20207;-57
2022/01/15 07:08:48;;;;;;;24.57;16.90;;;;;;;-1.80;100.00;98270.13;5052943;28;20453;-59
2022/01/15 07:11:17;;;;;;;25.07;16.93;;;;;;;-1.84;100.00;98266.00;5055753;28;21254;-58
2022/01/15 07:13:46;;;;;;;24.63;17.30;;;;;;;-1.72;100.00;98276.66;5052522;28;20544;-59
2022/01/15 07:16:14;;;;;;;25.13;15.77;;;;;;;-1.72;100.00;98287.91;5058946;28;20298;-55
2022/01/15 07:18:42;;;;;;;23.00;16.90;;;;;;;-1.61;100.00;98277.78;5050122;28;20205;-62
2022/01/15 07:21:11;;;;;;;23.43;15.60;;;;;;;-1.55;100.00;98279.25;5047542;28;20208;-62
2022/01/15 07:23:39;;;;;;;21.83;16.17;;;;;;;-1.47;100.00;98271.88;5053255;28;20263;-59
2022/01/15 07:26:07;;;;;;;22.50;17.93;;;;;;;-1.51;100.00;98267.75;5048079;28;20289;-62
2022/01/15 07:28:36;;;;;;;28.67;18.67;;;;;;;-1.49;100.00;98275.50;5049268;28;20208;-63
2022/01/15 07:31:05;;;;;;;30.40;20.20;;;;;;;-1.28;100.00;98276.09;5050504;28;20309;-59
2022/01/15 07:33:33;;;;;;;29.27;18.83;;;;;;;-1.29;100.00;98270.97;5049305;28;20203;-59
2022/01/15 07:36:01;;;;;;;30.50;20.43;;;;;;;-1.55;100.00;98268.00;5050309;28;20276;-59
2022/01/15 07:38:29;;;;;;;28.23;18.37;;;;;;;-1.41;100.00;98267.25;5048904;28;20457;-61
2022/01/15 07:40:59;;;;;;;35.38;27.25;;;;;;;-1.19;100.00;98272.16;5050520;28;20550;-57
2022/01/15 07:43:27;;;;;;;29.07;21.13;;;;;;;-1.10;100.00;98274.28;5052153;28;20290;-58
2022/01/15 07:45:57;;;;;;;28.30;19.40;;;;;;;-1.09;100.00;98269.88;5050742;28;20305;-58
2022/01/15 07:48:25;;;;;;;36.97;23.53;;;;;;;-0.95;100.00;98275.16;5051119;28;20223;-58
2022/01/15 07:50:53;;;;;;;29.03;19.17;;;;;;;-1.03;100.00;98275.59;5052314;28;20203;-58
2022/01/15 07:53:22;;;;;;;32.37;22.00;;;;;;;-1.11;100.00;98269.13;5045107;28;20207;-56
2022/01/15 07:55:50;;;;;;;29.23;20.33;;;;;;;-0.90;100.00;98270.56;5048541;28;20334;-59
2022/01/15 07:58:18;;;;;;;27.33;18.93;;;;;;;-0.86;100.00;98267.81;5049546;28;20207;-59
2022/01/15 08:00:46;;;;;;;26.63;18.50;;;;;;;-0.69;100.00;98265.09;5047401;28;20242;-58
2022/01/15 08:03:16;;;;;;;29.87;16.60;;;;;;;-0.78;100.00;98257.78;5050449;28;20221;-61
2022/01/15 08:05:44;;;;;;;21.87;16.23;;;;;;;-0.74;100.00;98254.94;5043601;28;20231;-55
2022/01/15 08:08:12;;;;;;;24.87;17.17;;;;;;;-0.86;100.00;98252.19;5050480;28;20295;-52
2022/01/15 08:10:40;;;;;;;26.60;17.37;;;;;;;-0.74;100.00;98259.31;5052115;28;20316;-58
2022/01/15 08:13:09;;;;;;;25.53;17.30;;;;;;;-0.59;100.00;98257.59;5052526;28;20950;-59
2022/01/15 08:15:37;;;;;;;22.60;15.63;;;;;;;-0.56;100.00;98259.19;5053324;28;20254;-58
2022/01/15 08:18:05;;;;;;;24.00;16.90;;;;;;;-0.60;100.00;98248.94;5051760;28;20287;-58
2022/01/15 08:20:35;;;;;;;23.57;16.30;;;;;;;-0.53;100.00;98252.03;5053568;28;20249;-60
2022/01/15 08:23:03;;;;;;;27.27;15.93;;;;;;;-0.44;100.00;98250.69;5052610;28;20203;-60
2022/01/15 08:25:32;;;;;;;24.07;16.40;;;;;;;-0.47;100.00;98248.25;5052783;28;20262;-57
2022/01/15 08:28:01;;;;;;;30.50;18.80;;;;;;;-0.17;100.00;98244.81;5051421;28;20242;-61
2022/01/15 08:30:29;;;;;;;24.33;18.70;;;;;;;-0.18;100.00;98248.34;5053096;28;20286;-55
2022/01/15 08:32:57;;;;;;;22.47;16.87;;;;;;;-0.08;100.00;98248.63;5052496;28;20199;-59
2022/01/15 08:35:26;;;;;;;24.13;16.97;;;;;;;-0.05;100.00;98251.03;5052936;28;20784;-57
2022/01/15 08:37:57;;;;;;;27.00;18.57;;;;;;;-0.30;100.00;98253.31;5055177;28;20203;-59
2022/01/15 08:40:32;;;;;;;33.10;20.20;;;;;;;-0.13;100.00;98255.88;5051066;28;20708;-59
2022/01/15 08:43:00;;;;;;;31.27;20.07;;;;;;;-0.02;100.00;98256.06;5052428;28;20453;-61
2022/01/15 08:45:29;;;;;;;28.27;18.53;;;;;;;0.04;100.00;98247.91;5055914;28;20321;-58
2022/01/15 08:47:57;;;;;;;25.33;17.23;;;;;;;0.13;100.00;98246.50;5051096;28;20231;-59
2022/01/15 08:50:26;;;;;;;24.40;15.97;;;;;;;0.29;100.00;98251.63;5053455;28;20754;-58
2022/01/15 08:52:55;;;;;;;21.50;15.77;;;;;;;0.30;100.00;98252.47;5050439;28;20322;-62
2022/01/15 08:55:28;;;;;;;24.27;17.23;;;;;;;0.31;100.00;98254.16;5051041;28;20309;-55
2022/01/15 08:57:59;;;;;;;24.70;15.97;;;;;;;0.40;100.00;98256.19;5050430;28;20206;-58
2022/01/15 09:00:28;;;;;;;22.10;17.03;;;;;;;0.38;100.00;98253.69;5054052;28;20612;-62
2022/01/15 09:02:56;;;;;;;24.10;16.40;;;;;;;0.65;100.00;98254.72;5058571;28;20203;-61
2022/01/15 09:05:25;;;;;;;22.70;16.67;;;;;;;0.77;100.00;98261.75;5054193;28;20288;-59
2022/01/15 09:07:54;;;;;;;24.83;16.13;;;;;;;0.69;100.00;98254.41;5057253;28;20290;-58
2022/01/15 09:10:24;;;;;;;22.07;15.17;;;;;;;0.76;100.00;98243.59;5058256;28;20649;-57
2022/01/15 09:12:52;;;;;;;24.93;16.23;;;;;;;0.84;100.00;98247.41;5053016;28;20291;-59
2022/01/15 09:15:29;;;;;;;20.10;16.20;;;;;;;0.89;100.00;98244.50;5054935;28;20221;-59
2022/01/15 09:17:57;;;;;;;22.87;16.80;;;;;;;0.95;100.00;98253.75;5058281;28;21015;-58
2022/01/15 09:20:25;;;;;;;22.37;15.63;;;;;;;0.61;100.00;98248.00;5059579;28;20457;-57
2022/01/15 09:22:53;;;;;;;24.07;17.13;;;;;;;0.61;100.00;98259.25;5057595;28;20322;-62
2022/01/15 09:25:21;;;;;;;23.23;16.77;;;;;;;0.71;100.00;98249.94;5054625;28;20276;-57
2022/01/15 09:30:37;;;;;;;22.80;17.27;;;;;;;1.20;100.00;98254.75;5056278;28;20239;-61
2022/01/15 09:33:06;;;;;;;18.97;13.77;;;;;;;1.14;100.00;98253.41;5053532;28;20231;-61
2022/01/15 09:35:35;;;;;;;23.10;15.50;;;;;;;1.12;100.00;98256.09;5052099;28;20224;-60
2022/01/15 09:38:05;;;;;;;23.00;14.80;;;;;;;1.21;100.00;98256.44;5056198;28;20657;-59
2022/01/15 09:40:34;;;;;;;19.57;15.23;;;;;;;1.03;100.00;98264.53;5051557;28;20340;-59
2022/01/15 09:43:05;;;;;;;20.87;15.27;;;;;;;0.99;100.00;98263.88;5050863;28;20243;-61
2022/01/15 09:45:35;;;;;;;20.97;15.60;;;;;;;1.02;100.00;98268.06;5055420;28;20257;-57
2022/01/15 09:48:06;;;;;;;20.47;15.00;;;;;;;0.75;100.00;98274.06;5055737;28;20410;-57
2022/01/15 09:50:36;;;;;;;19.93;15.37;;;;;;;0.91;100.00;98270.50;5057631;28;20260;-57
2022/01/15 09:53:05;;;;;;;21.47;15.10;;;;;;;1.36;100.00;98280.72;5052395;28;20195;-62
2022/01/15 09:55:33;;;;;;;24.27;17.30;;;;;;;1.36;100.00;98278.13;5053856;28;20276;-57
2022/01/15 09:58:02;;;;;;;26.00;18.67;;;;;;;1.39;100.00;98278.78;5051757;28;20245;-59
2022/01/15 10:00:31;;;;;;;22.03;15.53;;;;;;;1.33;100.00;98279.19;5052313;28;20298;-61
2022/01/15 10:03:02;;;;;;;22.50;17.07;;;;;;;1.51;100.00;98281.53;5054546;28;20203;-59
2022/01/15 10:05:30;;;;;;;26.30;18.37;;;;;;;1.32;100.00;98272.25;5049289;28;20796;-60
2022/01/15 10:08:02;;;;;;;25.20;17.97;;;;;;;1.40;100.00;98275.22;5054605;28;20199;-57
2022/01/15 10:10:37;;;;;;;23.27;17.20;;;;;;;1.57;100.00;98270.66;5054591;28;20226;-59
2022/01/15 10:13:18;;;;;;;22.80;18.10;;;;;;;1.48;100.00;98261.66;5053506;28;20718;-57
2022/01/15 10:15:47;;;;;;;22.17;16.83;;;;;;;1.46;100.00;98278.38;5050014;28;20222;-63
2022/01/15 10:18:23;;;;;;;24.13;17.13;;;;;;;1.29;100.00;98267.22;5055705;28;20293;-59
2022/01/15 10:20:53;;;;;;;24.90;17.00;;;;;;;1.34;100.00;98273.00;5053953;28;20289;-58
2022/01/15 10:23:24;;;;;;;24.60;16.33;;;;;;;1.63;100.00;98272.88;5054184;28;20273;-53
2022/01/15 10:26:20;;;;;;;19.90;15.77;;;;;;;1.70;100.00;98268.09;5055244;28;21689;-57
2022/01/15 10:28:50;;;;;;;22.20;16.17;;;;;;;1.74;100.00;98259.09;4993452;28;20902;-60
2022/01/15 10:31:19;;;;;;;20.37;16.53;;;;;;;1.91;100.00;98252.75;4995716;28;20288;-58
2022/01/15 10:33:48;;;;;;;22.17;15.87;;;;;;;1.91;100.00;98252.75;4990607;28;20256;-58
2022/01/15 10:36:23;;;;;;;24.83;16.23;;;;;;;2.04;100.00;98247.56;4997594;28;20732;-59
2022/01/15 10:38:52;;;;;;;19.37;15.67;;;;;;;2.21;100.00;98248.16;4996646;28;20240;-59
2022/01/15 10:41:33;;;;;;;23.83;15.93;;;;;;;2.21;100.00;98238.56;4996798;28;20647;-61
2022/01/15 10:44:30;;;;;;;21.73;16.37;;;;;;;2.40;100.00;98239.91;4993736;28;20283;-62
2022/01/15 10:47:03;;;;;;;23.07;16.93;;;;;;;2.28;100.00;98239.81;4987696;28;20280;-60
2022/01/15 10:49:32;;;;;;;17.73;15.50;;;;;;;2.38;100.00;98229.56;4993797;28;20276;-57
2022/01/15 10:52:08;;;;;;;22.03;14.47;;;;;;;2.67;100.00;98231.94;4996809;28;20247;-59
2022/01/15 10:54:50;;;;;;;17.13;12.97;;;;;;;2.63;100.00;98224.38;4990319;28;21081;-55
2022/01/15 10:57:21;;;;;;;16.27;12.73;;;;;;;2.37;100.00;98221.81;4992546;28;20280;-59
2022/01/15 10:59:59;;;;;;;21.47;13.90;;;;;;;2.43;100.00;98216.13;4990975;28;20297;-59
2022/01/15 11:02:27;;;;;;;17.37;13.93;;;;;;;2.40;100.00;98214.59;4996053;28;20344;-63
2022/01/15 11:04:59;;;;;;;18.63;15.03;;;;;;;2.33;100.00;98207.28;5029706;28;20225;-62
2022/01/15 11:07:27;;;;;;;16.57;13.47;;;;;;;2.38;100.00;98199.94;5055687;28;20325;-59
2022/01/15 11:09:55;;;;;;;18.17;14.67;;;;;;;2.68;100.00;98199.56;5057496;28;20250;-62
2022/01/15 11:12:27;;;;;;;13.43;11.77;;;;;;;2.38;100.00;98198.16;5056755;28;20294;-61
2022/01/15 11:14:55;;;;;;;16.00;12.80;;;;;;;2.30;100.00;98187.41;5050788;28;20762;-57
2022/01/15 11:17:26;;;;;;;16.50;12.77;;;;;;;2.38;100.00;98177.25;5050961;28;20797;-59
2022/01/15 11:19:54;;;;;;;15.97;13.60;;;;;;;2.62;100.00;98180.84;5056085;28;20227;-59
2022/01/15 11:22:22;;;;;;;14.23;11.23;;;;;;;2.81;100.00;98175.94;5051474;28;20696;-60
2022/01/15 11:24:51;;;;;;;10.20;8.73;;;;;;;2.37;100.00;98165.09;5052123;28;20306;-63
2022/01/15 11:27:19;;;;;;;7.27;6.43;;;;;;;2.15;100.00;98171.00;5051600;28;20782;-60
2022/01/15 11:29:48;;;;;;;5.40;4.90;;;;;;;2.26;100.00;98159.78;5052876;28;20237;-58
2022/01/15 11:32:17;;;;;;;6.53;5.97;;;;;;;2.24;100.00;98156.44;5055949;28;20291;-62
2022/01/15 11:35:02;;;;;;;7.37;6.67;;;;;;;2.57;100.00;98161.09;5054959;28;20223;-61
2022/01/15 11:37:42;;;;;;;5.07;4.63;;;;;;;2.87;100.00;98165.06;5054131;28;20195;-63
2022/01/15 11:40:53;;;;;;;5.80;5.20;;;;;;;2.57;100.00;98161.09;5050759;28;20280;-58